createdAt,value
2018-08-20T00:00:25.716Z,22.74
2018-08-20T00:01:25.676Z,22.67
2018-08-20T00:02:25.636Z,22.68
2018-08-20T00:03:25.599Z,22.65
2018-08-20T00:04:25.560Z,22.63
2018-08-20T00:05:25.527Z,22.78
2018-08-20T00:06:25.482Z,22.67
2018-08-20T00:07:25.440Z,22.71
2018-08-20T00:08:25.398Z,22.62
2018-08-20T00:09:25.363Z,22.71
2018-08-20T00:10:25.318Z,22.63
2018-08-20T00:11:25.278Z,22.61
2018-08-20T00:12:25.240Z,22.63
2018-08-20T00:13:25.199Z,22.62
2018-08-20T00:14:25.159Z,22.65
2018-08-20T00:15:25.117Z,22.65
2018-08-20T00:16:25.079Z,22.59
2018-08-20T00:17:25.038Z,22.62
2018-08-20T00:18:24.999Z,22.56
2018-08-20T00:19:24.959Z,22.62
2018-08-20T00:20:24.920Z,22.65
2018-08-20T00:21:24.890Z,22.67
2018-08-20T00:22:24.840Z,22.63
2018-08-20T00:23:24.799Z,22.62
2018-08-20T00:24:24.758Z,22.61
2018-08-20T00:25:24.723Z,22.62
2018-08-20T00:26:24.679Z,22.52
2018-08-20T00:27:24.642Z,22.59
2018-08-20T00:28:24.601Z,22.61
2018-08-20T00:29:24.559Z,22.65
2018-08-20T00:30:24.521Z,22.58
2018-08-20T00:31:24.478Z,22.62
2018-08-20T00:32:24.442Z,22.56
2018-08-20T00:33:24.399Z,22.55
2018-08-20T00:34:24.361Z,22.59
2018-08-20T00:35:24.318Z,22.47
2018-08-20T00:36:24.282Z,22.49
2018-08-20T00:37:24.242Z,22.58
2018-08-20T00:38:24.199Z,22.44
2018-08-20T00:39:24.160Z,22.58
2018-08-20T00:40:24.119Z,22.46
2018-08-20T00:41:24.086Z,22.51
2018-08-20T00:42:24.041Z,22.58
2018-08-20T00:43:24.007Z,22.52
2018-08-20T00:44:23.968Z,22.46
2018-08-20T00:45:23.920Z,22.52
2018-08-20T00:46:23.880Z,22.52
2018-08-20T00:47:23.842Z,22.47
2018-08-20T00:48:23.803Z,22.49
2018-08-20T00:49:23.760Z,22.41
2018-08-20T00:50:23.720Z,22.43
2018-08-20T00:51:23.684Z,22.51
2018-08-20T00:52:23.646Z,22.53
2018-08-20T00:53:23.599Z,22.46
2018-08-20T00:54:23.562Z,22.41
2018-08-20T00:55:23.584Z,22.38
2018-08-20T00:56:23.483Z,22.44
2018-08-20T00:57:23.477Z,22.44
2018-08-20T00:58:23.413Z,22.41
2018-08-20T00:59:23.373Z,22.41
2018-08-20T01:00:23.338Z,22.46
2018-08-20T01:01:23.318Z,22.37
2018-08-20T01:02:23.242Z,22.49
2018-08-20T01:03:23.203Z,22.40
2018-08-20T01:04:23.164Z,22.43
2018-08-20T01:05:23.120Z,22.43
2018-08-20T01:06:23.087Z,22.40
2018-08-20T01:07:23.045Z,22.41
2018-08-20T01:08:23.005Z,22.44
2018-08-20T01:09:22.962Z,22.37
2018-08-20T01:10:22.922Z,22.41
2018-08-20T01:11:22.894Z,22.37
2018-08-20T01:12:22.839Z,22.41
2018-08-20T01:13:22.803Z,22.38
2018-08-20T01:14:22.762Z,22.38
2018-08-20T01:15:22.724Z,22.37
2018-08-20T01:16:22.680Z,22.43
2018-08-20T01:17:22.642Z,22.36
2018-08-20T01:18:22.599Z,22.40
2018-08-20T01:19:22.563Z,22.36
2018-08-20T01:20:22.525Z,22.31
2018-08-20T01:21:22.479Z,22.37
2018-08-20T01:22:22.440Z,22.34
2018-08-20T01:23:22.398Z,22.36
2018-08-20T01:24:22.364Z,22.33
2018-08-20T01:25:22.322Z,22.40
2018-08-20T01:26:22.280Z,22.28
2018-08-20T01:27:22.237Z,22.34
2018-08-20T01:28:22.200Z,22.31
2018-08-20T01:29:22.162Z,22.25
2018-08-20T01:30:22.120Z,22.26
2018-08-20T01:31:22.081Z,22.34
2018-08-20T01:32:22.041Z,22.25
2018-08-20T01:33:22.000Z,22.31
2018-08-20T01:34:21.987Z,22.30
2018-08-20T01:35:21.923Z,22.26
2018-08-20T01:36:21.880Z,22.33
2018-08-20T01:37:21.840Z,22.33
2018-08-20T01:38:21.804Z,22.25
2018-08-20T01:39:21.757Z,22.30
2018-08-20T01:40:21.717Z,22.26
2018-08-20T01:41:21.678Z,22.25
2018-08-20T01:42:21.639Z,22.22
2018-08-20T01:43:21.597Z,22.30
2018-08-20T01:44:21.556Z,22.23
2018-08-20T01:45:21.517Z,22.25
2018-08-20T01:46:21.481Z,22.21
2018-08-20T01:47:21.435Z,22.23
2018-08-20T01:48:21.396Z,22.30
2018-08-20T01:49:21.356Z,22.22
2018-08-20T01:50:21.319Z,22.21
2018-08-20T01:51:21.276Z,22.25
2018-08-20T01:52:21.247Z,22.22
2018-08-20T01:53:21.197Z,22.18
2018-08-20T01:54:21.154Z,22.25
2018-08-20T01:55:21.115Z,22.23
2018-08-20T01:56:21.074Z,22.18
2018-08-20T01:57:21.040Z,22.22
2018-08-20T01:58:20.997Z,22.22
2018-08-20T01:59:20.955Z,22.23
2018-08-20T02:00:20.916Z,22.21
2018-08-20T02:01:20.874Z,22.22
2018-08-20T02:02:20.838Z,22.18
2018-08-20T02:03:20.795Z,22.26
2018-08-20T02:04:20.759Z,22.21
2018-08-20T02:05:20.722Z,22.18
2018-08-20T02:06:20.740Z,22.08
2018-08-20T02:07:20.731Z,22.14
2018-08-20T02:08:20.594Z,22.10
2018-08-20T02:09:20.554Z,22.08
2018-08-20T02:10:20.513Z,22.06
2018-08-20T02:11:20.473Z,22.06
2018-08-20T02:12:20.432Z,21.99
2018-08-20T02:13:20.396Z,21.99
2018-08-20T02:14:20.354Z,22.04
2018-08-20T02:15:20.316Z,22.06
2018-08-20T02:16:20.274Z,21.99
2018-08-20T02:17:20.232Z,21.94
2018-08-20T02:18:20.192Z,21.91
2018-08-20T02:19:20.151Z,21.97
2018-08-20T02:20:20.110Z,21.84
2018-08-20T02:21:20.072Z,21.85
2018-08-20T02:22:20.031Z,21.91
2018-08-20T02:23:19.992Z,21.81
2018-08-20T02:24:19.957Z,21.84
2018-08-20T02:25:19.911Z,21.84
2018-08-20T02:26:19.876Z,21.83
2018-08-20T02:27:19.833Z,21.78
2018-08-20T02:28:19.787Z,21.75
2018-08-20T02:29:19.756Z,21.77
2018-08-20T02:30:19.711Z,21.72
2018-08-20T02:31:19.677Z,21.66
2018-08-20T02:32:19.639Z,21.74
2018-08-20T02:33:19.594Z,21.69
2018-08-20T02:34:19.547Z,21.75
2018-08-20T02:35:19.508Z,21.72
2018-08-20T02:36:19.467Z,21.75
2018-08-20T02:37:19.424Z,21.72
2018-08-20T02:38:19.385Z,21.70
2018-08-20T02:39:19.345Z,21.66
2018-08-20T02:40:19.307Z,21.63
2018-08-20T02:41:19.263Z,21.65
2018-08-20T02:42:19.222Z,21.63
2018-08-20T02:43:19.188Z,21.65
2018-08-20T02:44:19.142Z,21.62
2018-08-20T02:45:19.101Z,21.60
2018-08-20T02:46:19.062Z,21.66
2018-08-20T02:47:19.023Z,21.53
2018-08-20T02:48:18.982Z,21.59
2018-08-20T02:49:18.941Z,21.58
2018-08-20T02:50:18.903Z,21.63
2018-08-20T02:51:18.860Z,21.62
2018-08-20T02:52:18.821Z,21.53
2018-08-20T02:53:18.778Z,21.53
2018-08-20T02:54:18.737Z,21.48
2018-08-20T02:55:18.698Z,21.47
2018-08-20T02:56:18.659Z,21.50
2018-08-20T02:57:18.617Z,21.53
2018-08-20T02:58:18.579Z,21.53
2018-08-20T02:59:18.541Z,21.41
2018-08-20T03:00:18.499Z,21.54
2018-08-20T03:01:18.461Z,21.56
2018-08-20T03:02:18.422Z,21.44
2018-08-20T03:03:18.376Z,21.51
2018-08-20T03:04:18.334Z,21.45
2018-08-20T03:05:18.295Z,21.45
2018-08-20T03:06:18.259Z,21.47
2018-08-20T03:07:18.221Z,21.47
2018-08-20T03:08:18.173Z,21.38
2018-08-20T03:09:18.431Z,21.35
2018-08-20T03:10:18.094Z,21.38
2018-08-20T03:11:18.053Z,21.33
2018-08-20T03:12:18.011Z,21.38
2018-08-20T03:13:17.971Z,21.40
2018-08-20T03:14:17.929Z,21.33
2018-08-20T03:15:17.890Z,21.33
2018-08-20T03:16:17.859Z,21.33
2018-08-20T03:17:17.811Z,21.41
2018-08-20T03:18:17.770Z,21.33
2018-08-20T03:19:17.725Z,21.28
2018-08-20T03:20:17.687Z,21.33
2018-08-20T03:21:17.647Z,21.40
2018-08-20T03:22:17.606Z,21.26
2018-08-20T03:23:17.563Z,21.40
2018-08-20T03:24:17.526Z,21.26
2018-08-20T03:25:17.485Z,21.33
2018-08-20T03:26:17.454Z,21.28
2018-08-20T03:27:17.405Z,21.29
2018-08-20T03:28:17.370Z,21.33
2018-08-20T03:29:17.327Z,21.33
2018-08-20T03:30:17.283Z,21.33
2018-08-20T03:31:17.242Z,21.37
2018-08-20T03:32:17.202Z,21.29
2018-08-20T03:33:17.162Z,21.30
2018-08-20T03:34:17.117Z,21.25
2018-08-20T03:35:17.081Z,21.29
2018-08-20T03:36:17.051Z,21.32
2018-08-20T03:37:16.998Z,21.29
2018-08-20T03:38:16.962Z,21.38
2018-08-20T03:39:16.915Z,21.32
2018-08-20T03:40:16.872Z,21.37
2018-08-20T03:41:16.833Z,21.32
2018-08-20T03:42:16.793Z,21.30
2018-08-20T03:43:16.751Z,21.29
2018-08-20T03:44:16.712Z,21.26
2018-08-20T03:45:16.682Z,21.35
2018-08-20T03:46:16.634Z,21.29
2018-08-20T03:47:16.608Z,21.25
2018-08-20T03:48:16.548Z,21.28
2018-08-20T03:49:16.509Z,21.30
2018-08-20T03:50:16.470Z,21.29
2018-08-20T03:51:16.434Z,21.29
2018-08-20T03:52:16.390Z,21.25
2018-08-20T03:53:16.348Z,21.29
2018-08-20T03:54:16.305Z,21.29
2018-08-20T03:55:16.266Z,21.26
2018-08-20T03:56:16.226Z,21.25
2018-08-20T03:57:16.182Z,21.26
2018-08-20T03:58:16.144Z,21.25
2018-08-20T03:59:16.102Z,21.25
2018-08-20T04:00:16.060Z,21.26
2018-08-20T04:01:16.022Z,21.25
2018-08-20T04:02:15.982Z,21.28
2018-08-20T04:03:15.943Z,21.25
2018-08-20T04:04:15.901Z,21.28
2018-08-20T04:05:15.860Z,21.30
2018-08-20T04:06:15.829Z,21.26
2018-08-20T04:07:15.777Z,21.23
2018-08-20T04:08:15.742Z,21.28
2018-08-20T04:09:15.696Z,21.25
2018-08-20T04:10:18.861Z,21.25
2018-08-20T04:11:15.616Z,21.30
2018-08-20T04:12:15.575Z,21.29
2018-08-20T04:13:15.533Z,21.25
2018-08-20T04:14:15.494Z,21.20
2018-08-20T04:15:15.514Z,21.28
2018-08-20T04:16:15.411Z,21.23
2018-08-20T04:17:15.374Z,21.22
2018-08-20T04:18:15.332Z,21.23
2018-08-20T04:19:15.294Z,21.28
2018-08-20T04:20:15.251Z,21.26
2018-08-20T04:21:15.210Z,21.28
2018-08-20T04:22:15.168Z,21.26
2018-08-20T04:23:15.129Z,21.19
2018-08-20T04:24:15.087Z,21.26
2018-08-20T04:25:15.055Z,21.28
2018-08-20T04:26:15.009Z,21.20
2018-08-20T04:27:14.963Z,21.25
2018-08-20T04:28:14.927Z,21.20
2018-08-20T04:29:14.883Z,21.22
2018-08-20T04:30:14.842Z,21.22
2018-08-20T04:31:14.801Z,21.28
2018-08-20T04:32:14.764Z,21.20
2018-08-20T04:33:14.725Z,21.19
2018-08-20T04:34:14.680Z,21.20
2018-08-20T04:35:14.639Z,21.25
2018-08-20T04:36:14.602Z,21.19
2018-08-20T04:37:14.558Z,21.22
2018-08-20T04:38:14.517Z,21.19
2018-08-20T04:39:14.478Z,21.22
2018-08-20T04:40:14.438Z,21.20
2018-08-20T04:41:14.394Z,21.23
2018-08-20T04:42:14.455Z,21.30
2018-08-20T04:43:14.317Z,21.25
2018-08-20T04:44:14.277Z,21.22
2018-08-20T04:45:14.239Z,21.23
2018-08-20T04:46:14.193Z,21.25
2018-08-20T04:47:14.155Z,21.23
2018-08-20T04:48:14.113Z,21.22
2018-08-20T04:49:14.076Z,21.25
2018-08-20T04:50:14.137Z,21.22
2018-08-20T04:51:14.268Z,21.19
2018-08-20T04:52:13.967Z,21.28
2018-08-20T04:53:13.912Z,21.28
2018-08-20T04:54:13.875Z,21.25
2018-08-20T04:55:13.834Z,21.26
2018-08-20T04:56:13.787Z,21.25
2018-08-20T04:57:13.750Z,21.25
2018-08-20T04:58:13.704Z,21.26
2018-08-20T04:59:13.670Z,21.23
2018-08-20T05:00:13.627Z,21.22
2018-08-20T05:01:13.581Z,21.25
2018-08-20T05:02:13.541Z,21.22
2018-08-20T05:03:13.503Z,21.22
2018-08-20T05:04:13.462Z,21.25
2018-08-20T05:05:13.421Z,21.25
2018-08-20T05:06:13.380Z,21.25
2018-08-20T05:07:13.346Z,21.28
2018-08-20T05:08:13.304Z,21.28
2018-08-20T05:09:13.259Z,21.26
2018-08-20T05:10:13.225Z,21.28
2018-08-20T05:11:13.174Z,21.26
2018-08-20T05:12:13.134Z,21.28
2018-08-20T05:13:13.096Z,21.26
2018-08-20T05:14:13.055Z,21.25
2018-08-20T05:15:13.012Z,21.20
2018-08-20T05:16:12.971Z,21.25
2018-08-20T05:17:12.938Z,21.25
2018-08-20T05:18:12.892Z,21.23
2018-08-20T05:19:12.854Z,21.25
2018-08-20T05:20:12.809Z,21.22
2018-08-20T05:21:12.801Z,21.26
2018-08-20T05:22:12.727Z,21.28
2018-08-20T05:23:12.695Z,21.30
2018-08-20T05:24:12.655Z,21.26
2018-08-20T05:25:12.606Z,21.28
2018-08-20T05:26:12.568Z,21.25
2018-08-20T05:27:12.529Z,21.26
2018-08-20T05:28:12.483Z,21.26
2018-08-20T05:29:12.462Z,21.28
2018-08-20T05:30:12.404Z,21.23
2018-08-20T05:31:12.366Z,21.29
2018-08-20T05:32:12.322Z,21.29
2018-08-20T05:33:12.280Z,21.25
2018-08-20T05:34:12.239Z,21.29
2018-08-20T05:35:12.199Z,21.29
2018-08-20T05:36:12.161Z,21.25
2018-08-20T05:37:12.122Z,21.30
2018-08-20T05:38:12.078Z,21.28
2018-08-20T05:39:12.038Z,21.29
2018-08-20T05:40:11.996Z,21.25
2018-08-20T05:41:11.955Z,21.23
2018-08-20T05:42:11.919Z,21.28
2018-08-20T05:43:11.874Z,21.22
2018-08-20T05:44:11.839Z,21.26
2018-08-20T05:45:11.796Z,21.28
2018-08-20T05:46:11.753Z,21.20
2018-08-20T05:47:11.713Z,21.20
2018-08-20T05:48:11.669Z,21.25
2018-08-20T05:49:11.629Z,21.22
2018-08-20T05:50:11.591Z,21.23
2018-08-20T05:51:11.549Z,21.19
2018-08-20T05:52:11.507Z,21.20
2018-08-20T05:53:11.469Z,21.14
2018-08-20T05:54:11.425Z,21.20
2018-08-20T05:55:11.386Z,21.17
2018-08-20T05:56:11.347Z,21.17
2018-08-20T05:57:11.307Z,21.15
2018-08-20T05:58:11.268Z,21.11
2018-08-20T05:59:11.280Z,21.13
2018-08-20T06:00:11.182Z,21.11
2018-08-20T06:01:11.141Z,21.08
2018-08-20T06:02:11.102Z,21.10
2018-08-20T06:03:11.062Z,21.10
2018-08-20T06:04:11.019Z,21.05
2018-08-20T06:05:10.978Z,21.05
2018-08-20T06:06:10.937Z,21.03
2018-08-20T06:07:10.896Z,21.05
2018-08-20T06:08:10.857Z,21.11
2018-08-20T06:09:10.815Z,20.98
2018-08-20T06:10:10.778Z,21.00
2018-08-20T06:11:10.736Z,21.03
2018-08-20T06:12:10.692Z,21.05
2018-08-20T06:13:10.654Z,21.11
2018-08-20T06:14:10.613Z,20.98
2018-08-20T06:15:10.611Z,20.92
2018-08-20T06:16:10.530Z,21.01
2018-08-20T06:17:10.492Z,21.01
2018-08-20T06:18:10.448Z,20.98
2018-08-20T06:19:10.408Z,20.98
2018-08-20T06:20:10.373Z,20.93
2018-08-20T06:21:10.326Z,21.00
2018-08-20T06:22:10.286Z,21.00
2018-08-20T06:23:10.246Z,20.93
2018-08-20T06:24:10.206Z,21.03
2018-08-20T06:25:10.166Z,20.95
2018-08-20T06:26:10.124Z,21.00
2018-08-20T06:27:10.082Z,20.90
2018-08-20T06:28:10.042Z,20.86
2018-08-20T06:29:10.000Z,20.89
2018-08-20T06:30:09.959Z,20.93
2018-08-20T06:31:09.918Z,20.89
2018-08-20T06:32:09.878Z,20.89
2018-08-20T06:33:09.838Z,20.88
2018-08-20T06:34:09.809Z,21.00
2018-08-20T06:35:09.755Z,20.93
2018-08-20T06:36:09.715Z,20.88
2018-08-20T06:37:09.674Z,20.89
2018-08-20T06:38:09.632Z,20.89
2018-08-20T06:39:09.590Z,20.90
2018-08-20T06:40:09.550Z,20.83
2018-08-20T06:41:09.512Z,20.86
2018-08-20T06:42:09.469Z,20.83
2018-08-20T06:43:09.431Z,20.89
2018-08-20T06:44:09.387Z,20.85
2018-08-20T06:45:09.350Z,20.85
2018-08-20T06:46:09.307Z,20.85
2018-08-20T06:47:09.265Z,20.88
2018-08-20T06:48:09.224Z,20.85
2018-08-20T06:49:09.184Z,20.86
2018-08-20T06:50:09.144Z,20.86
2018-08-20T06:51:09.103Z,20.83
2018-08-20T06:52:09.060Z,20.98
2018-08-20T06:53:09.021Z,20.90
2018-08-20T06:54:08.980Z,21.00
2018-08-20T06:55:08.937Z,20.98
2018-08-20T06:56:08.897Z,20.89
2018-08-20T06:57:08.865Z,20.96
2018-08-20T06:58:08.818Z,21.00
2018-08-20T06:59:08.774Z,20.89
2018-08-20T07:00:08.735Z,20.89
2018-08-20T07:01:08.694Z,21.00
2018-08-20T07:02:08.655Z,20.89
2018-08-20T07:03:08.612Z,21.00
2018-08-20T07:04:08.573Z,20.96
2018-08-20T07:05:08.531Z,21.00
2018-08-20T07:06:08.492Z,20.85
2018-08-20T07:07:08.447Z,20.93
2018-08-20T07:08:08.408Z,21.00
2018-08-20T07:09:08.367Z,20.95
2018-08-20T07:10:08.326Z,20.89
2018-08-20T07:11:08.295Z,21.00
2018-08-20T07:12:08.244Z,21.00
2018-08-20T07:13:08.205Z,20.92
2018-08-20T07:14:08.163Z,21.00
2018-08-20T07:15:08.124Z,20.98
2018-08-20T07:17:08.039Z,21.00
2018-08-20T07:18:07.999Z,20.98
2018-08-20T07:20:07.917Z,20.98
2018-08-20T07:21:07.877Z,20.98
2018-08-20T07:22:07.843Z,20.98
2018-08-20T07:23:07.828Z,21.01
2018-08-20T07:24:07.753Z,20.93
2018-08-20T07:25:07.714Z,21.07
2018-08-20T07:26:07.672Z,21.07
2018-08-20T07:27:07.633Z,21.03
2018-08-20T07:28:07.589Z,21.01
2018-08-20T07:29:07.550Z,21.01
2018-08-20T07:30:07.509Z,21.03
2018-08-20T07:31:07.467Z,21.04
2018-08-20T07:32:07.426Z,21.08
2018-08-20T07:33:07.386Z,21.01
2018-08-20T07:34:07.348Z,21.05
2018-08-20T07:35:07.304Z,21.13
2018-08-20T07:37:07.222Z,21.14
2018-08-20T07:38:07.183Z,21.19
2018-08-20T07:39:07.143Z,21.14
2018-08-20T07:40:07.101Z,21.19
2018-08-20T07:41:07.063Z,21.19
2018-08-20T07:42:07.019Z,21.20
2018-08-20T07:43:06.980Z,21.20
2018-08-20T07:44:06.939Z,21.20
2018-08-20T07:45:06.898Z,21.19
2018-08-20T07:46:06.858Z,21.22
2018-08-20T07:47:06.815Z,21.28
2018-08-20T07:48:06.775Z,21.29
2018-08-20T07:49:06.737Z,21.28
2018-08-20T07:50:06.694Z,21.35
2018-08-20T07:51:06.654Z,21.22
2018-08-20T07:52:06.614Z,21.35
2018-08-20T07:53:06.576Z,21.29
2018-08-20T07:54:06.532Z,21.28
2018-08-20T07:55:06.491Z,21.35
2018-08-20T07:56:06.452Z,21.37
2018-08-20T07:57:06.412Z,21.32
2018-08-20T07:58:06.373Z,21.40
2018-08-20T07:59:06.331Z,21.35
2018-08-20T08:00:06.287Z,21.40
2018-08-20T08:01:06.248Z,21.37
2018-08-20T08:02:06.209Z,21.47
2018-08-20T08:03:06.166Z,21.47
2018-08-20T08:04:06.127Z,21.47
2018-08-20T08:05:06.086Z,21.47
2018-08-20T08:06:06.049Z,21.53
2018-08-20T08:07:06.001Z,21.56
2018-08-20T08:08:05.964Z,21.48
2018-08-20T08:09:05.924Z,21.53
2018-08-20T08:10:05.881Z,21.53
2018-08-20T08:11:05.843Z,21.48
2018-08-20T08:12:05.799Z,21.50
2018-08-20T08:13:05.762Z,21.53
2018-08-20T08:14:05.776Z,21.58
2018-08-20T08:15:05.677Z,21.45
2018-08-20T08:16:05.637Z,21.54
2018-08-20T08:17:05.595Z,21.51
2018-08-20T08:18:05.557Z,21.53
2018-08-20T08:19:05.532Z,21.62
2018-08-20T08:20:05.476Z,21.60
2018-08-20T08:21:05.441Z,21.69
2018-08-20T08:22:05.395Z,21.62
2018-08-20T08:23:05.352Z,21.65
2018-08-20T08:24:05.314Z,21.63
2018-08-20T08:25:05.271Z,21.74
2018-08-20T08:26:05.236Z,21.70
2018-08-20T08:27:05.191Z,21.65
2018-08-20T08:28:05.151Z,21.68
2018-08-20T08:29:05.110Z,21.74
2018-08-20T08:30:05.069Z,21.66
2018-08-20T08:31:05.030Z,21.72
2018-08-20T08:32:04.996Z,21.77
2018-08-20T08:33:04.948Z,21.83
2018-08-20T08:34:04.907Z,21.78
2018-08-20T08:35:04.866Z,21.72
2018-08-20T08:36:04.825Z,21.78
2018-08-20T08:37:04.785Z,21.78
2018-08-20T08:38:04.785Z,21.83
2018-08-20T08:39:04.704Z,21.84
2018-08-20T08:40:04.664Z,21.89
2018-08-20T08:41:04.624Z,21.88
2018-08-20T08:42:04.584Z,21.78
2018-08-20T08:43:04.545Z,21.94
2018-08-20T08:44:04.506Z,21.88
2018-08-20T08:45:04.463Z,22.01
2018-08-20T08:46:04.423Z,21.88
2018-08-20T08:47:04.382Z,21.94
2018-08-20T08:48:04.840Z,22.00
2018-08-20T08:49:04.303Z,22.01
2018-08-20T08:50:04.264Z,22.07
2018-08-20T08:51:04.224Z,22.04
2018-08-20T08:52:04.180Z,22.01
2018-08-20T08:53:04.139Z,22.08
2018-08-20T08:54:04.099Z,22.06
2018-08-20T08:55:04.076Z,22.06
2018-08-20T08:56:04.019Z,22.10
2018-08-20T08:57:03.980Z,22.07
2018-08-20T08:58:03.937Z,22.16
2018-08-20T08:59:03.900Z,22.19
2018-08-20T09:00:03.858Z,22.19
2018-08-20T09:01:03.818Z,22.22
2018-08-20T09:02:03.777Z,22.19
2018-08-20T09:03:03.736Z,22.19
2018-08-20T09:04:04.029Z,22.22
2018-08-20T09:05:03.656Z,22.21
2018-08-20T09:06:03.615Z,22.19
2018-08-20T09:07:03.575Z,22.26
2018-08-20T09:08:03.537Z,22.22
2018-08-20T09:09:03.496Z,22.28
2018-08-20T09:10:03.455Z,22.33
2018-08-20T09:11:03.418Z,22.33
2018-08-20T09:12:03.375Z,22.34
2018-08-20T09:13:03.338Z,22.31
2018-08-20T09:14:03.296Z,22.37
2018-08-20T09:15:03.252Z,22.41
2018-08-20T09:16:03.215Z,22.40
2018-08-20T09:17:03.177Z,22.40
2018-08-20T09:18:03.136Z,22.40
2018-08-20T09:19:03.094Z,22.40
2018-08-20T09:20:03.054Z,22.40
2018-08-20T09:21:03.017Z,22.44
2018-08-20T09:22:02.978Z,22.49
2018-08-20T09:23:02.931Z,22.53
2018-08-20T09:24:02.892Z,22.49
2018-08-20T09:25:02.855Z,22.51
2018-08-20T09:26:02.815Z,22.58
2018-08-20T09:27:02.771Z,22.59
2018-08-20T09:28:02.732Z,22.59
2018-08-20T09:29:02.692Z,22.62
2018-08-20T09:30:02.653Z,22.67
2018-08-20T09:31:02.611Z,22.73
2018-08-20T09:32:02.572Z,22.67
2018-08-20T09:33:02.538Z,22.65
2018-08-20T09:34:02.491Z,22.78
2018-08-20T09:35:02.451Z,22.68
2018-08-20T09:36:02.412Z,22.71
2018-08-20T09:37:02.372Z,22.67
2018-08-20T09:38:02.347Z,22.74
2018-08-20T09:39:02.550Z,22.76
2018-08-20T09:40:02.253Z,22.76
2018-08-20T09:41:02.213Z,22.78
2018-08-20T09:42:02.179Z,22.83
2018-08-20T09:43:02.131Z,22.83
2018-08-20T09:44:02.092Z,22.86
2018-08-20T09:45:02.050Z,22.86
2018-08-20T09:46:02.017Z,22.88
2018-08-20T09:47:01.972Z,22.88
2018-08-20T09:48:01.933Z,22.96
2018-08-20T09:49:01.894Z,22.99
2018-08-20T09:50:01.853Z,23.02
2018-08-20T09:51:01.812Z,23.14
2018-08-20T09:52:01.772Z,23.17
2018-08-20T09:53:01.741Z,23.18
2018-08-20T09:54:01.696Z,23.28
2018-08-20T09:55:01.656Z,23.34
2018-08-20T09:56:01.617Z,23.39
2018-08-20T09:57:01.587Z,23.47
2018-08-20T09:58:01.538Z,23.55
2018-08-20T09:59:01.511Z,23.59
2018-08-20T10:00:01.468Z,23.66
2018-08-20T10:01:01.416Z,23.74
2018-08-20T10:02:01.377Z,23.74
2018-08-20T10:03:01.335Z,23.81
2018-08-20T10:04:01.296Z,23.85
2018-08-20T10:05:01.257Z,24.00
2018-08-20T10:06:01.217Z,24.07
2018-08-20T10:07:01.183Z,24.11
2018-08-20T10:08:01.137Z,24.26
2018-08-20T10:09:01.098Z,24.29
2018-08-20T10:10:01.063Z,24.34
2018-08-20T10:11:01.019Z,24.44
2018-08-20T10:12:00.979Z,24.59
2018-08-20T10:13:00.941Z,24.66
2018-08-20T10:14:00.907Z,24.65
2018-08-20T10:15:00.864Z,24.81
2018-08-20T10:16:00.826Z,24.92
2018-08-20T10:17:00.784Z,24.99
2018-08-20T10:18:00.746Z,25.07
2018-08-20T10:19:00.706Z,25.09
2018-08-20T10:20:00.666Z,25.22
2018-08-20T10:21:00.629Z,25.21
2018-08-20T10:22:00.591Z,25.31
2018-08-20T10:23:00.553Z,25.33
2018-08-20T10:24:00.515Z,25.39
2018-08-20T10:25:00.473Z,25.40
2018-08-20T10:26:00.434Z,25.49
2018-08-20T10:27:00.400Z,25.51
2018-08-20T10:28:00.356Z,25.55
2018-08-20T10:29:00.320Z,25.58
2018-08-20T10:30:00.280Z,25.58
2018-08-20T10:31:00.241Z,25.59
2018-08-20T10:32:00.257Z,25.67
2018-08-20T10:33:00.164Z,25.68
2018-08-20T10:34:00.126Z,25.58
2018-08-20T10:35:00.084Z,25.52
2018-08-20T10:36:00.047Z,25.44
2018-08-20T10:37:00.011Z,25.44
2018-08-20T10:38:00.009Z,25.56
2018-08-20T10:38:59.946Z,25.58
2018-08-20T10:39:59.905Z,25.59
2018-08-20T10:40:59.855Z,25.66
2018-08-20T10:41:59.819Z,25.74
2018-08-20T10:42:59.777Z,25.71
2018-08-20T10:43:59.744Z,25.77
2018-08-20T10:44:59.702Z,25.86
2018-08-20T10:45:59.665Z,25.86
2018-08-20T10:46:59.625Z,25.88
2018-08-20T10:47:59.587Z,25.98
2018-08-20T10:48:59.547Z,25.93
2018-08-20T10:49:59.569Z,25.93
2018-08-20T10:50:59.471Z,26.01
2018-08-20T10:51:59.434Z,26.19
2018-08-20T10:52:59.395Z,26.18
2018-08-20T10:53:59.357Z,26.19
2018-08-20T10:54:59.319Z,26.19
2018-08-20T10:55:59.280Z,26.36
2018-08-20T10:56:59.240Z,26.37
2018-08-20T10:57:59.202Z,26.45
2018-08-20T10:58:59.163Z,26.53
2018-08-20T10:59:59.125Z,26.55
2018-08-20T11:00:59.088Z,26.61
2018-08-20T11:01:59.091Z,26.67
2018-08-20T11:02:59.012Z,26.81
2018-08-20T11:03:58.979Z,26.68
2018-08-20T11:04:58.938Z,26.71
2018-08-20T11:05:58.899Z,26.74
2018-08-20T11:06:58.859Z,26.81
2018-08-20T11:07:58.824Z,26.86
2018-08-20T11:08:58.786Z,26.83
2018-08-20T11:09:58.856Z,26.97
2018-08-20T11:10:58.738Z,26.93
2018-08-20T11:11:58.670Z,26.98
2018-08-20T11:12:58.635Z,27.01
2018-08-20T11:13:58.597Z,27.01
2018-08-20T11:14:58.564Z,26.97
2018-08-20T11:15:58.518Z,27.00
2018-08-20T11:16:58.480Z,26.97
2018-08-20T11:17:58.562Z,26.98
2018-08-20T11:18:58.406Z,26.97
2018-08-20T11:19:58.367Z,26.89
2018-08-20T11:20:58.374Z,26.83
2018-08-20T11:21:58.592Z,26.81
2018-08-20T11:22:58.252Z,26.83
2018-08-20T11:23:58.220Z,26.76
2018-08-20T11:24:58.344Z,26.67
2018-08-20T11:25:58.141Z,26.70
2018-08-20T11:26:58.144Z,26.60
2018-08-20T11:27:58.466Z,26.53
2018-08-20T11:28:58.027Z,26.52
2018-08-20T11:29:57.988Z,26.45
2018-08-20T11:30:57.954Z,26.30
2018-08-20T11:31:57.913Z,26.30
2018-08-20T11:32:57.874Z,26.19
2018-08-20T11:33:57.839Z,26.18
2018-08-20T11:34:57.799Z,26.22
2018-08-20T11:35:57.763Z,26.19
2018-08-20T11:36:57.723Z,26.13
2018-08-20T11:37:57.687Z,26.03
2018-08-20T11:38:57.826Z,25.92
2018-08-20T11:39:57.641Z,25.89
2018-08-20T11:40:57.572Z,25.76
2018-08-20T11:41:57.553Z,25.76
2018-08-20T11:42:57.727Z,25.67
2018-08-20T11:43:57.738Z,25.61
2018-08-20T11:44:57.418Z,25.63
2018-08-20T11:45:57.381Z,25.46
2018-08-20T11:46:57.740Z,25.55
2018-08-20T11:47:57.303Z,25.49
2018-08-20T11:48:57.272Z,25.37
2018-08-20T11:49:57.228Z,25.34
2018-08-20T11:50:57.187Z,25.39
2018-08-20T11:51:57.151Z,25.31
2018-08-20T11:52:57.119Z,25.25
2018-08-20T11:53:57.753Z,25.21
2018-08-20T11:54:57.032Z,25.12
2018-08-20T11:55:56.997Z,25.12
2018-08-20T11:56:56.959Z,24.97
2018-08-20T11:57:56.917Z,25.03
2018-08-20T11:58:56.893Z,25.00
2018-08-20T11:59:56.839Z,24.88
2018-08-20T12:00:56.803Z,24.85
2018-08-20T12:01:56.790Z,24.77
2018-08-20T12:02:56.722Z,24.69
2018-08-20T12:03:56.684Z,24.68
2018-08-20T12:04:56.649Z,24.65
2018-08-20T12:05:56.606Z,24.61
2018-08-20T12:06:56.665Z,24.58
2018-08-20T12:07:56.533Z,24.48
2018-08-20T12:08:56.497Z,24.53
2018-08-20T12:09:56.457Z,24.56
2018-08-20T12:10:56.410Z,24.55
2018-08-20T12:11:56.372Z,24.50
2018-08-20T12:12:56.341Z,24.58
2018-08-20T12:13:56.298Z,24.51
2018-08-20T12:14:56.309Z,24.58
2018-08-20T12:15:56.218Z,24.61
2018-08-20T12:16:56.178Z,24.63
2018-08-20T12:17:56.138Z,24.51
2018-08-20T12:18:56.100Z,24.58
2018-08-20T12:19:56.066Z,24.58
2018-08-20T12:20:56.028Z,24.63
2018-08-20T12:21:55.982Z,24.65
2018-08-20T12:22:55.946Z,24.65
2018-08-20T12:23:55.905Z,24.65
2018-08-20T12:24:55.869Z,24.61
2018-08-20T12:25:55.829Z,24.65
2018-08-20T12:26:55.786Z,24.51
2018-08-20T12:27:55.747Z,24.46
2018-08-20T12:28:55.711Z,24.50
2018-08-20T12:29:55.671Z,24.53
2018-08-20T12:30:55.675Z,24.50
2018-08-20T12:31:55.593Z,24.55
2018-08-20T12:32:55.641Z,24.50
2018-08-20T12:33:55.515Z,24.46
2018-08-20T12:34:55.473Z,24.41
2018-08-20T12:35:55.442Z,24.50
2018-08-20T12:36:55.397Z,24.50
2018-08-20T12:37:55.358Z,24.36
2018-08-20T12:38:55.323Z,24.40
2018-08-20T12:39:55.435Z,24.37
2018-08-20T12:40:55.242Z,24.41
2018-08-20T12:41:55.202Z,24.44
2018-08-20T12:42:55.168Z,24.34
2018-08-20T12:43:55.202Z,24.34
2018-08-20T12:44:55.084Z,24.32
2018-08-20T12:45:55.054Z,24.25
2018-08-20T12:46:55.007Z,24.25
2018-08-20T12:47:54.973Z,24.25
2018-08-20T12:48:54.929Z,24.29
2018-08-20T12:49:54.886Z,24.28
2018-08-20T12:50:54.860Z,24.32
2018-08-20T12:51:54.812Z,24.25
2018-08-20T12:52:54.787Z,24.24
2018-08-20T12:53:54.739Z,24.24
2018-08-20T12:54:54.694Z,24.14